createdAt,value
2023-03-02T00:00:54.043Z,11.30
2023-03-02T00:01:54.045Z,11.70
2023-03-02T00:02:54.049Z,11.50
2023-03-02T00:03:54.070Z,12.00
2023-03-02T00:04:54.011Z,12.10
2023-03-02T00:05:54.013Z,11.70
2023-03-02T00:06:54.003Z,11.30
2023-03-02T00:07:54.003Z,11.80
2023-03-02T00:08:53.988Z,12.10
2023-03-02T00:09:53.984Z,12.10
2023-03-02T00:10:53.974Z,11.30
2023-03-02T00:11:53.973Z,11.40
2023-03-02T00:12:53.963Z,11.40
2023-03-02T00:13:53.964Z,11.50
2023-03-02T00:14:54.026Z,11.20
2023-03-02T00:15:53.980Z,11.10
2023-03-02T00:16:53.937Z,11.10
2023-03-02T00:17:53.940Z,11.30
2023-03-02T00:18:53.928Z,11.10
2023-03-02T00:19:53.927Z,11.20
2023-03-02T00:20:53.938Z,11.20
2023-03-02T00:21:53.913Z,11.30
2023-03-02T00:22:53.904Z,11.20
2023-03-02T00:23:53.918Z,11.70
2023-03-02T00:24:53.896Z,11.60
2023-03-02T00:25:53.890Z,11.70
2023-03-02T00:26:53.884Z,12.20
2023-03-02T00:27:53.877Z,12.50
2023-03-02T00:28:53.864Z,12.50
2023-03-02T00:29:53.858Z,11.60
2023-03-02T00:30:53.891Z,11.50
2023-03-02T00:31:53.968Z,11.20
2023-03-02T00:32:53.840Z,11.60
2023-03-02T00:33:53.839Z,12.10
2023-03-02T00:34:53.835Z,12.30
2023-03-02T00:35:53.900Z,11.80
2023-03-02T00:36:53.817Z,12.20
2023-03-02T00:37:53.807Z,11.60
2023-03-02T00:38:53.810Z,13.60
2023-03-02T00:39:53.808Z,13.40
2023-03-02T00:40:53.790Z,11.80
2023-03-02T00:41:53.792Z,11.60
2023-03-02T00:42:53.779Z,12.80
2023-03-02T00:43:53.774Z,12.10
2023-03-02T00:44:53.769Z,11.80
2023-03-02T00:45:53.761Z,11.20
2023-03-02T00:46:53.832Z,11.60
2023-03-02T00:47:53.756Z,11.80
2023-03-02T00:48:53.750Z,11.60
2023-03-02T00:49:53.739Z,11.50
2023-03-02T00:50:53.728Z,11.70
2023-03-02T00:51:53.735Z,11.10
2023-03-02T00:52:53.716Z,12.00
2023-03-02T00:53:53.718Z,11.50
2023-03-02T00:54:53.703Z,11.60
2023-03-02T00:55:53.702Z,11.80
2023-03-02T00:56:53.695Z,11.80
2023-03-02T00:57:53.689Z,11.30
2023-03-02T00:58:53.681Z,11.80
2023-03-02T00:59:53.702Z,11.50
2023-03-02T01:00:53.661Z,11.70
2023-03-02T01:01:53.682Z,11.70
2023-03-02T01:02:53.781Z,11.50
2023-03-02T01:03:53.657Z,11.60
2023-03-02T01:04:53.645Z,11.60
2023-03-02T01:05:53.638Z,11.70
2023-03-02T01:06:53.640Z,11.10
2023-03-02T01:07:53.632Z,10.90
2023-03-02T01:08:53.626Z,11.00
2023-03-02T01:09:53.625Z,11.30
2023-03-02T01:10:54.433Z,11.60
2023-03-02T01:11:53.607Z,15.40
2023-03-02T01:12:53.601Z,14.80
2023-03-02T01:13:53.594Z,11.10
2023-03-02T01:14:53.597Z,11.20
2023-03-02T01:15:53.626Z,10.70
2023-03-02T01:16:53.583Z,11.30
2023-03-02T01:17:53.572Z,11.10
2023-03-02T01:18:53.592Z,11.40
2023-03-02T01:19:53.566Z,11.00
2023-03-02T01:20:53.554Z,10.90
2023-03-02T01:21:53.548Z,11.10
2023-03-02T01:22:53.542Z,11.20
2023-03-02T01:23:53.539Z,11.60
2023-03-02T01:24:53.524Z,11.20
2023-03-02T01:25:53.520Z,11.40
2023-03-02T01:26:53.513Z,11.50
2023-03-02T01:27:53.517Z,11.20
2023-03-02T01:28:53.501Z,11.50
2023-03-02T01:29:53.508Z,11.10
2023-03-02T01:30:53.493Z,11.10
2023-03-02T01:31:53.613Z,11.20
2023-03-02T01:32:53.477Z,11.30
2023-03-02T01:33:53.479Z,10.90
2023-03-02T01:34:53.488Z,11.10
2023-03-02T01:35:53.514Z,10.90
2023-03-02T01:36:53.461Z,11.30
2023-03-02T01:37:53.447Z,11.60
2023-03-02T01:38:53.504Z,11.30
2023-03-02T01:39:53.436Z,11.30
2023-03-02T01:40:53.434Z,11.90
2023-03-02T01:41:53.430Z,11.90
2023-03-02T01:42:53.422Z,11.70
2023-03-02T01:43:53.411Z,11.50
2023-03-02T01:44:53.411Z,11.50
2023-03-02T01:45:53.694Z,11.50
2023-03-02T01:46:53.396Z,11.20
2023-03-02T01:47:53.385Z,11.50
2023-03-02T01:48:53.380Z,11.40
2023-03-02T01:49:53.389Z,11.40
2023-03-02T01:50:53.393Z,11.40
2023-03-02T01:51:53.367Z,11.50
2023-03-02T01:52:53.361Z,11.50
2023-03-02T01:53:55.185Z,11.70
2023-03-02T01:54:53.347Z,11.00
2023-03-02T01:55:53.334Z,11.40
2023-03-02T01:56:53.338Z,11.60
2023-03-02T01:57:53.324Z,11.40
2023-03-02T01:58:53.319Z,11.10
2023-03-02T01:59:53.314Z,11.50
2023-03-02T02:00:53.344Z,10.90
2023-03-02T02:01:53.298Z,11.30
2023-03-02T02:02:53.316Z,10.80
2023-03-02T02:03:53.312Z,11.10
2023-03-02T02:04:53.282Z,10.90
2023-03-02T02:05:53.276Z,11.00
2023-03-02T02:06:53.298Z,11.10
2023-03-02T02:07:53.270Z,15.60
2023-03-02T02:08:53.272Z,11.30
2023-03-02T02:09:53.253Z,11.40
2023-03-02T02:10:53.251Z,11.10
2023-03-02T02:11:53.236Z,11.50
2023-03-02T02:12:53.234Z,12.50
2023-03-02T02:13:53.233Z,11.60
2023-03-02T02:14:53.227Z,11.40
2023-03-02T02:15:53.214Z,11.60
2023-03-02T02:16:53.333Z,11.70
2023-03-02T02:17:53.202Z,11.60
2023-03-02T02:18:53.194Z,12.00
2023-03-02T02:19:53.187Z,11.60
2023-03-02T02:20:53.184Z,11.80
2023-03-02T02:21:53.174Z,11.60
2023-03-02T02:22:53.201Z,12.00
2023-03-02T02:23:53.170Z,11.20
2023-03-02T02:24:53.160Z,11.10
2023-03-02T02:25:53.237Z,11.40
2023-03-02T02:26:53.155Z,11.70
2023-03-02T02:27:53.137Z,11.30
2023-03-02T02:28:53.140Z,11.00
2023-03-02T02:29:53.125Z,11.30
2023-03-02T02:30:53.126Z,11.10
2023-03-02T02:31:53.247Z,11.60
2023-03-02T02:32:53.291Z,11.40
2023-03-02T02:33:53.103Z,11.30
2023-03-02T02:34:53.103Z,11.70
2023-03-02T02:35:53.123Z,11.40
2023-03-02T02:36:53.088Z,11.10
2023-03-02T02:37:53.078Z,10.90
2023-03-02T02:38:53.102Z,11.30
2023-03-02T02:39:53.069Z,11.20
2023-03-02T02:40:53.078Z,11.10
2023-03-02T02:41:53.049Z,11.30
2023-03-02T02:42:53.053Z,11.10
2023-03-02T02:43:53.052Z,11.30
2023-03-02T02:44:53.040Z,11.20
2023-03-02T02:45:53.160Z,10.70
2023-03-02T02:46:53.022Z,10.90
2023-03-02T02:47:53.032Z,10.60
2023-03-02T02:48:53.009Z,10.70
2023-03-02T02:49:53.004Z,10.40
2023-03-02T02:50:52.994Z,9.80
2023-03-02T02:51:52.983Z,10.10
2023-03-02T02:52:52.986Z,10.20
2023-03-02T02:53:52.981Z,10.30
2023-03-02T02:54:53.000Z,10.60
2023-03-02T02:55:52.962Z,10.30
2023-03-02T02:56:52.964Z,10.60
2023-03-02T02:57:52.959Z,10.60
2023-03-02T02:58:52.952Z,10.70
2023-03-02T02:59:52.964Z,10.70
2023-03-02T03:00:53.004Z,10.60
2023-03-02T03:01:52.920Z,11.00
2023-03-02T03:02:52.922Z,11.10
2023-03-02T03:03:53.011Z,11.40
2023-03-02T03:04:52.910Z,11.00
2023-03-02T03:06:52.899Z,11.30
2023-03-02T03:07:52.887Z,11.40
2023-03-02T03:08:52.880Z,11.10
2023-03-02T03:09:52.946Z,11.50
2023-03-02T03:10:52.887Z,11.40
2023-03-02T03:11:52.858Z,11.40
2023-03-02T03:12:52.854Z,11.00
2023-03-02T03:13:52.847Z,11.40
2023-03-02T03:14:52.848Z,11.40
2023-03-02T03:15:52.834Z,11.30
2023-03-02T03:16:52.895Z,11.10
2023-03-02T03:17:52.818Z,11.50
2023-03-02T03:18:52.815Z,11.50
2023-03-02T03:19:52.814Z,10.90
2023-03-02T03:20:52.806Z,11.10
2023-03-02T03:21:52.796Z,11.30
2023-03-02T03:22:52.791Z,11.40
2023-03-02T03:23:52.779Z,11.20
2023-03-02T03:24:52.778Z,11.90
2023-03-02T03:25:52.775Z,11.20
2023-03-02T03:26:52.788Z,11.20
2023-03-02T03:27:52.754Z,11.30
2023-03-02T03:28:52.745Z,11.00
2023-03-02T03:29:52.735Z,11.10
2023-03-02T03:30:52.788Z,11.40
2023-03-02T03:31:52.795Z,11.20
2023-03-02T03:32:52.728Z,11.60
2023-03-02T03:33:52.710Z,11.00
2023-03-02T03:34:52.707Z,11.00
2023-03-02T03:35:52.752Z,11.50
2023-03-02T03:36:52.696Z,11.60
2023-03-02T03:37:52.686Z,11.70
2023-03-02T03:38:52.679Z,11.60
2023-03-02T03:39:52.668Z,11.30
2023-03-02T03:40:52.669Z,11.20
2023-03-02T03:41:52.659Z,11.20
2023-03-02T03:42:52.680Z,11.40
2023-03-02T03:43:52.643Z,9.60
2023-03-02T03:44:52.656Z,9.60
2023-03-02T03:45:52.653Z,9.90
2023-03-02T03:46:52.627Z,9.80
2023-03-02T03:47:52.625Z,9.30
2023-03-02T03:48:52.618Z,9.50
2023-03-02T03:49:52.651Z,9.80
2023-03-02T03:50:52.600Z,10.40
2023-03-02T03:51:52.588Z,9.50
2023-03-02T03:52:52.591Z,10.10
2023-03-02T03:53:52.573Z,10.00
2023-03-02T03:54:52.572Z,9.90
2023-03-02T03:55:52.565Z,9.40
2023-03-02T03:56:52.576Z,9.00
2023-03-02T03:57:52.553Z,9.10
2023-03-02T03:58:52.678Z,9.30
2023-03-02T03:59:52.537Z,9.20
2023-03-02T04:00:52.534Z,9.40
2023-03-02T04:01:52.606Z,9.10
2023-03-02T04:02:52.596Z,9.70
2023-03-02T04:03:52.516Z,10.10
2023-03-02T04:04:52.520Z,9.60
2023-03-02T04:05:52.517Z,10.20
2023-03-02T04:06:52.494Z,9.90
2023-03-02T04:07:52.492Z,10.40
2023-03-02T04:08:52.484Z,10.30
2023-03-02T04:09:52.472Z,9.70
2023-03-02T04:10:52.464Z,9.20
2023-03-02T04:11:52.457Z,9.50
2023-03-02T04:12:52.456Z,9.30
2023-03-02T04:13:52.446Z,9.00
2023-03-02T04:14:52.465Z,9.20
2023-03-02T04:15:52.492Z,9.00
2023-03-02T04:16:52.444Z,8.40
2023-03-02T04:17:52.416Z,9.40
2023-03-02T04:18:52.414Z,9.50
2023-03-02T04:19:52.404Z,9.00
2023-03-02T04:20:52.405Z,9.00
2023-03-02T04:21:52.392Z,9.10
2023-03-02T04:22:52.388Z,8.80
2023-03-02T04:23:52.381Z,8.60
2023-03-02T04:24:52.375Z,9.00
2023-03-02T04:25:52.364Z,8.70
2023-03-02T04:26:52.367Z,8.80
2023-03-02T04:27:52.354Z,8.60
2023-03-02T04:28:52.350Z,8.30
2023-03-02T04:29:52.343Z,8.40
2023-03-02T04:30:52.403Z,8.80
2023-03-02T04:31:52.408Z,8.60
2023-03-02T04:32:52.329Z,10.20
2023-03-02T04:33:52.317Z,8.60
2023-03-02T04:34:52.321Z,9.70
2023-03-02T04:35:52.335Z,9.60
2023-03-02T04:36:52.307Z,9.70
2023-03-02T04:37:52.297Z,10.10
2023-03-02T04:38:52.290Z,9.70
2023-03-02T04:39:52.590Z,9.20
2023-03-02T04:40:52.277Z,9.80
2023-03-02T04:41:52.272Z,9.20
2023-03-02T04:42:52.267Z,8.30
2023-03-02T04:43:52.259Z,8.80
2023-03-02T04:44:52.273Z,8.60
2023-03-02T04:45:52.245Z,8.50
2023-03-02T04:46:52.330Z,8.80
2023-03-02T04:47:52.235Z,9.20
2023-03-02T04:48:52.239Z,9.60
2023-03-02T04:49:52.221Z,8.80
2023-03-02T04:50:52.228Z,10.00
2023-03-02T04:51:52.209Z,9.70
2023-03-02T04:52:52.203Z,9.50
2023-03-02T04:53:52.211Z,9.00
2023-03-02T04:54:52.191Z,9.40
2023-03-02T04:55:52.183Z,9.60
2023-03-02T04:56:52.176Z,9.60
2023-03-02T04:57:52.175Z,8.80
2023-03-02T04:58:52.174Z,9.60
2023-03-02T04:59:52.158Z,9.30
2023-03-02T05:00:52.154Z,9.00
2023-03-02T05:01:52.192Z,8.70
2023-03-02T05:02:52.158Z,8.80
2023-03-02T05:03:52.129Z,8.80
2023-03-02T05:04:52.173Z,8.70
2023-03-02T05:05:52.114Z,9.20
2023-03-02T05:06:52.116Z,9.20
2023-03-02T05:07:52.104Z,8.80
2023-03-02T05:08:52.095Z,8.70
2023-03-02T05:09:52.085Z,9.10
2023-03-02T05:10:52.081Z,9.40
2023-03-02T05:11:52.071Z,9.70
2023-03-02T05:12:52.068Z,9.50
2023-03-02T05:13:52.054Z,9.60
2023-03-02T05:14:52.089Z,10.10
2023-03-02T05:15:52.085Z,9.30
2023-03-02T05:16:52.043Z,9.20
2023-03-02T05:17:52.047Z,10.60
2023-03-02T05:18:52.060Z,10.10
2023-03-02T05:19:52.027Z,10.00
2023-03-02T05:20:52.020Z,9.90
2023-03-02T05:21:52.011Z,9.80
2023-03-02T05:22:52.013Z,9.40
2023-03-02T05:23:51.995Z,9.60
2023-03-02T05:24:51.987Z,9.20
2023-03-02T05:25:51.981Z,9.20
2023-03-02T05:26:51.976Z,9.70
2023-03-02T05:27:51.966Z,9.30
2023-03-02T05:28:54.034Z,9.60
2023-03-02T05:29:51.955Z,10.40
2023-03-02T05:30:51.952Z,9.30
2023-03-02T05:31:52.196Z,9.40
2023-03-02T05:32:51.940Z,9.70
2023-03-02T05:33:51.924Z,9.50
2023-03-02T05:34:51.945Z,9.00
2023-03-02T05:35:51.968Z,8.60
2023-03-02T05:36:51.911Z,9.00
2023-03-02T05:37:51.906Z,9.10
2023-03-02T05:38:51.894Z,9.40
2023-03-02T05:39:51.884Z,8.60
2023-03-02T05:40:51.886Z,8.30
2023-03-02T05:41:51.873Z,10.10
2023-03-02T05:42:51.878Z,9.40
2023-03-02T05:43:51.860Z,8.10
2023-03-02T05:44:51.854Z,8.40
2023-03-02T05:45:51.840Z,8.10
2023-03-02T05:46:51.874Z,8.40
2023-03-02T05:47:51.832Z,8.30
2023-03-02T05:48:51.829Z,8.60
2023-03-02T05:49:51.817Z,8.70
2023-03-02T05:50:51.836Z,8.50
2023-03-02T05:51:51.802Z,8.30
2023-03-02T05:52:51.798Z,8.60
2023-03-02T05:53:51.799Z,8.60
2023-03-02T05:54:51.783Z,8.70
2023-03-02T05:55:51.807Z,8.60
2023-03-02T05:56:51.777Z,8.90
2023-03-02T05:57:51.771Z,8.60
2023-03-02T05:58:51.761Z,8.60
2023-03-02T05:59:51.755Z,8.50
2023-03-02T06:00:51.741Z,8.80
2023-03-02T06:01:51.765Z,8.70
2023-03-02T06:02:51.752Z,8.70
2023-03-02T06:03:51.723Z,9.30
2023-03-02T06:04:51.711Z,9.10
2023-03-02T06:05:51.705Z,8.70
2023-03-02T06:06:51.725Z,8.90
2023-03-02T06:07:51.704Z,9.10
2023-03-02T06:08:51.684Z,9.60
2023-03-02T06:09:51.679Z,9.30
2023-03-02T06:10:51.674Z,9.00
2023-03-02T06:11:51.670Z,9.30
2023-03-02T06:12:51.661Z,9.50
2023-03-02T06:13:51.657Z,9.60
2023-03-02T06:14:51.648Z,9.50
2023-03-02T06:15:51.640Z,9.50
2023-03-02T06:16:51.701Z,9.00
2023-03-02T06:17:51.629Z,8.20
2023-03-02T06:18:51.623Z,8.20
2023-03-02T06:19:51.620Z,8.50
2023-03-02T06:20:51.605Z,8.70
2023-03-02T06:21:51.608Z,9.30
2023-03-02T06:22:51.613Z,8.80
2023-03-02T06:23:51.591Z,9.10
2023-03-02T06:24:51.581Z,8.90
2023-03-02T06:25:51.576Z,8.70
2023-03-02T06:26:51.566Z,9.10
2023-03-02T06:27:51.645Z,9.20
2023-03-02T06:28:53.764Z,8.70
2023-03-02T06:29:51.554Z,8.90
2023-03-02T06:30:51.538Z,8.80
2023-03-02T06:31:51.682Z,8.40
2023-03-02T06:32:51.692Z,8.50
2023-03-02T06:33:51.539Z,8.90
2023-03-02T06:34:51.514Z,8.80
2023-03-02T06:35:51.645Z,9.20
2023-03-02T06:36:51.502Z,8.80
2023-03-02T06:37:51.497Z,9.20
2023-03-02T06:38:51.626Z,9.00
2023-03-02T06:39:51.484Z,8.90
2023-03-02T06:40:51.475Z,9.30
2023-03-02T06:41:51.482Z,9.40
2023-03-02T06:42:51.473Z,9.00
2023-03-02T06:43:51.461Z,9.20
2023-03-02T06:44:51.456Z,9.20
2023-03-02T06:45:51.469Z,9.00
2023-03-02T06:46:51.438Z,8.90
2023-03-02T06:47:51.435Z,9.20
2023-03-02T06:48:51.422Z,8.60
2023-03-02T06:49:51.424Z,8.60
2023-03-02T06:50:51.417Z,9.20
2023-03-02T06:51:51.408Z,9.40
2023-03-02T06:52:51.396Z,9.20
2023-03-02T06:53:51.400Z,9.20
2023-03-02T06:54:51.414Z,9.50
2023-03-02T06:55:51.421Z,9.50
2023-03-02T06:56:51.370Z,9.60
2023-03-02T06:57:51.372Z,9.60
2023-03-02T06:58:51.359Z,9.60
2023-03-02T06:59:51.357Z,9.40
2023-03-02T07:00:51.431Z,9.20
2023-03-02T07:01:51.342Z,9.50
2023-03-02T07:02:51.343Z,9.20
2023-03-02T07:03:51.399Z,8.90
2023-03-02T07:04:51.322Z,9.30
2023-03-02T07:05:51.320Z,9.10
2023-03-02T07:06:51.314Z,9.30
2023-03-02T07:07:51.321Z,9.20
2023-03-02T07:08:51.302Z,9.40
2023-03-02T07:09:51.291Z,9.10
2023-03-02T07:10:51.302Z,10.20
2023-03-02T07:11:51.284Z,9.60
2023-03-02T07:12:51.292Z,9.40
2023-03-02T07:13:51.275Z,9.90
2023-03-02T07:14:51.263Z,9.60
2023-03-02T07:15:51.254Z,9.00
2023-03-02T07:16:51.307Z,9.10
2023-03-02T07:17:51.245Z,9.40
2023-03-02T07:18:51.236Z,9.60
2023-03-02T07:19:51.232Z,9.60
2023-03-02T07:20:51.221Z,9.40
2023-03-02T07:21:51.225Z,9.90
2023-03-02T07:22:51.219Z,9.60
2023-03-02T07:23:51.219Z,10.30
2023-03-02T07:24:51.197Z,10.10
2023-03-02T07:25:51.196Z,10.00
2023-03-02T07:26:51.288Z,10.30
2023-03-02T07:27:51.188Z,9.90
2023-03-02T07:28:51.177Z,10.00
2023-03-02T07:29:51.178Z,9.90
2023-03-02T07:30:51.281Z,9.80
2023-03-02T07:31:51.204Z,9.70
2023-03-02T07:32:51.155Z,9.40
2023-03-02T07:33:51.149Z,9.60
2023-03-02T07:34:51.147Z,9.50
2023-03-02T07:35:51.169Z,10.00
2023-03-02T07:36:51.129Z,9.40
2023-03-02T07:37:51.130Z,9.70
2023-03-02T07:38:51.123Z,10.00
2023-03-02T07:39:51.124Z,9.30
2023-03-02T07:40:51.257Z,9.90
2023-03-02T07:41:51.107Z,9.90
2023-03-02T07:42:51.119Z,9.60
2023-03-02T07:43:51.091Z,10.00
2023-03-02T07:44:51.085Z,10.00
2023-03-02T07:45:51.094Z,9.60
2023-03-02T07:46:51.119Z,9.20
2023-03-02T07:47:51.072Z,8.70
2023-03-02T07:48:51.058Z,9.50
2023-03-02T07:49:51.060Z,8.80
2023-03-02T07:50:51.049Z,9.20
2023-03-02T07:51:51.050Z,8.70
2023-03-02T07:52:51.037Z,8.90
2023-03-02T07:53:51.037Z,9.10
2023-03-02T07:54:51.053Z,8.80
2023-03-02T07:55:51.027Z,8.40
2023-03-02T07:56:51.026Z,8.40
2023-03-02T07:57:51.017Z,8.60
2023-03-02T07:58:51.035Z,8.80
2023-03-02T07:59:51.008Z,8.30
2023-03-02T08:00:51.006Z,8.10
2023-03-02T08:01:51.015Z,7.90
2023-03-02T08:02:51.038Z,8.50
2023-03-02T08:03:50.991Z,8.10
2023-03-02T08:04:50.986Z,8.00
2023-03-02T08:05:50.971Z,9.00
2023-03-02T08:06:50.974Z,8.60
2023-03-02T08:07:50.966Z,8.70
2023-03-02T08:08:50.952Z,8.30
2023-03-02T08:09:50.950Z,8.70
2023-03-02T08:10:50.947Z,9.20
2023-03-02T08:11:50.943Z,8.80
2023-03-02T08:12:50.933Z,9.20
2023-03-02T08:13:50.930Z,9.00
2023-03-02T08:14:50.943Z,8.90
2023-03-02T08:15:50.969Z,9.50
2023-03-02T08:16:51.236Z,9.10
2023-03-02T08:17:50.908Z,8.70
2023-03-02T08:18:50.902Z,9.40
2023-03-02T08:19:50.898Z,9.30
2023-03-02T08:20:50.897Z,9.00
2023-03-02T08:21:50.892Z,9.10
2023-03-02T08:22:50.883Z,9.10
2023-03-02T08:23:50.996Z,9.10
2023-03-02T08:24:50.921Z,9.10
2023-03-02T08:25:50.873Z,8.90
2023-03-02T08:26:50.866Z,9.20
2023-03-02T08:27:50.859Z,9.10
2023-03-02T08:28:50.849Z,9.10
2023-03-02T08:29:50.850Z,9.50
2023-03-02T08:30:50.878Z,9.00
2023-03-02T08:31:51.043Z,9.00
2023-03-02T08:32:50.897Z,9.40
2023-03-02T08:33:50.830Z,9.30
2023-03-02T08:34:50.830Z,9.40
2023-03-02T08:35:52.788Z,9.50
2023-03-02T08:36:50.813Z,8.80
2023-03-02T08:37:50.814Z,9.10
2023-03-02T08:38:50.810Z,9.40
2023-03-02T08:39:50.797Z,9.10
2023-03-02T08:40:50.805Z,9.10
2023-03-02T08:41:50.794Z,8.40
2023-03-02T08:42:50.777Z,8.30
2023-03-02T08:43:50.778Z,8.70
2023-03-02T08:44:50.776Z,8.40
2023-03-02T08:45:50.804Z,8.70
2023-03-02T08:46:50.809Z,8.90
2023-03-02T08:47:50.759Z,9.30
2023-03-02T08:48:50.749Z,8.90
2023-03-02T08:49:50.757Z,9.30
2023-03-02T08:50:50.739Z,8.80
2023-03-02T08:51:50.746Z,9.00
2023-03-02T08:52:50.729Z,8.90
2023-03-02T08:53:50.728Z,8.90
2023-03-02T08:54:50.781Z,9.00
2023-03-02T08:55:50.725Z,9.00
2023-03-02T08:56:50.709Z,8.80
2023-03-02T08:57:50.701Z,8.90
2023-03-02T08:58:50.700Z,9.30
2023-03-02T08:59:50.700Z,9.30
2023-03-02T09:00:50.770Z,9.00
2023-03-02T09:01:50.689Z,9.20
2023-03-02T09:02:50.711Z,9.40
2023-03-02T09:03:50.680Z,9.30
2023-03-02T09:04:50.733Z,9.60
2023-03-02T09:05:50.664Z,9.10
2023-03-02T09:06:50.708Z,8.60
2023-03-02T09:07:50.662Z,9.10
2023-03-02T09:08:50.656Z,9.00
2023-03-02T09:09:50.648Z,9.40
2023-03-02T09:10:50.635Z,9.50
2023-03-02T09:11:50.642Z,9.80
2023-03-02T09:12:50.628Z,9.20
2023-03-02T09:13:50.625Z,9.50
2023-03-02T09:14:50.624Z,10.80
2023-03-02T09:15:50.615Z,9.40
2023-03-02T09:16:50.713Z,9.20
2023-03-02T09:17:50.604Z,9.30
2023-03-02T09:18:50.623Z,9.80
2023-03-02T09:19:50.607Z,8.70
2023-03-02T09:20:50.592Z,9.40
2023-03-02T09:21:50.585Z,8.50
2023-03-02T09:22:50.584Z,8.80
2023-03-02T09:23:50.581Z,9.10
2023-03-02T09:24:50.570Z,8.90
2023-03-02T09:25:50.572Z,8.90
2023-03-02T09:26:50.582Z,9.20
2023-03-02T09:27:50.563Z,9.10
2023-03-02T09:28:50.552Z,9.50
2023-03-02T09:29:50.552Z,9.90
2023-03-02T09:30:50.552Z,9.40
2023-03-02T09:31:50.574Z,9.10
2023-03-02T09:32:50.672Z,8.90
2023-03-02T09:33:50.539Z,9.40
2023-03-02T09:34:50.547Z,9.80
2023-03-02T09:35:50.524Z,9.90
2023-03-02T09:36:50.521Z,9.10
2023-03-02T09:37:50.540Z,9.40
2023-03-02T09:38:50.512Z,9.80
2023-03-02T09:39:50.562Z,9.80
2023-03-02T09:40:50.504Z,9.20
2023-03-02T09:41:50.494Z,9.40
2023-03-02T09:42:50.485Z,9.10
2023-03-02T09:43:50.490Z,9.20
2023-03-02T09:44:50.523Z,9.50
2023-03-02T09:45:50.531Z,9.10
2023-03-02T09:46:50.469Z,9.30
2023-03-02T09:47:50.474Z,9.50
2023-03-02T09:48:50.462Z,9.40
2023-03-02T09:49:50.460Z,9.70
2023-03-02T09:50:50.474Z,9.50
2023-03-02T09:51:50.452Z,9.00
2023-03-02T09:52:50.440Z,9.50
2023-03-02T09:53:50.446Z,9.40
2023-03-02T09:54:50.459Z,9.20
2023-03-02T09:55:50.436Z,9.40
2023-03-02T09:56:50.421Z,8.50
2023-03-02T09:57:50.430Z,8.30
2023-03-02T09:58:50.416Z,9.00
2023-03-02T09:59:50.413Z,9.40
2023-03-02T10:00:50.405Z,9.60
2023-03-02T10:01:50.402Z,9.50
2023-03-02T10:02:50.472Z,10.40
2023-03-02T10:03:50.622Z,9.50
2023-03-02T10:04:50.546Z,9.00
2023-03-02T10:05:50.402Z,9.00
2023-03-02T10:06:50.398Z,9.10
2023-03-02T10:07:50.387Z,8.90
2023-03-02T10:08:50.381Z,8.70
2023-03-02T10:09:50.366Z,8.60
2023-03-02T10:10:50.367Z,9.00
2023-03-02T10:11:50.366Z,9.40
2023-03-02T10:12:50.386Z,9.00
2023-03-02T10:13:50.351Z,9.30
2023-03-02T10:14:50.344Z,9.70
2023-03-02T10:15:50.398Z,9.20
2023-03-02T10:16:50.340Z,9.60
2023-03-02T10:17:50.340Z,9.60
2023-03-02T10:18:50.419Z,9.50
2023-03-02T10:19:50.323Z,10.10
2023-03-02T10:20:50.321Z,9.60
2023-03-02T10:21:50.316Z,10.10
2023-03-02T10:22:50.340Z,9.50
2023-03-02T10:23:50.311Z,9.40
2023-03-02T10:24:50.312Z,9.20
2023-03-02T10:25:50.298Z,9.70
2023-03-02T10:26:50.302Z,10.00
2023-03-02T10:27:50.345Z,10.00
2023-03-02T10:28:50.289Z,10.40
2023-03-02T10:29:50.281Z,10.00
2023-03-02T10:30:50.362Z,9.00
2023-03-02T10:31:50.276Z,9.80
2023-03-02T10:32:50.291Z,10.00
2023-03-02T10:33:50.268Z,9.50
2023-03-02T10:34:50.264Z,9.40
2023-03-02T10:35:50.286Z,10.60
2023-03-02T10:36:50.272Z,10.00
2023-03-02T10:37:50.294Z,9.70
2023-03-02T10:38:50.273Z,10.00
2023-03-02T10:39:50.240Z,10.00
2023-03-02T10:40:50.239Z,10.30
2023-03-02T10:41:50.239Z,10.10
2023-03-02T10:42:50.244Z,10.80
2023-03-02T10:43:50.224Z,10.50
2023-03-02T10:44:50.235Z,10.60
2023-03-02T10:45:50.254Z,10.70
2023-03-02T10:46:50.222Z,10.20
2023-03-02T10:47:50.217Z,10.60
2023-03-02T10:48:50.206Z,10.20
2023-03-02T10:49:50.205Z,9.70
2023-03-02T10:50:50.207Z,10.10
2023-03-02T10:51:50.197Z,10.40
2023-03-02T10:52:59.520Z,10.50
2023-03-02T10:53:50.192Z,10.40
2023-03-02T10:54:50.323Z,10.60
2023-03-02T10:55:50.190Z,10.40
2023-03-02T10:56:50.186Z,10.40
2023-03-02T10:57:50.169Z,10.30
2023-03-02T10:58:50.216Z,10.10
2023-03-02T10:59:50.169Z,10.50
2023-03-02T11:00:50.164Z,10.50
2023-03-02T11:01:50.198Z,10.80
2023-03-02T11:02:50.158Z,10.60
2023-03-02T11:03:50.157Z,10.90
2023-03-02T11:04:50.182Z,10.10
2023-03-02T11:05:50.141Z,10.70
2023-03-02T11:06:50.144Z,10.60
2023-03-02T11:07:50.137Z,10.00
2023-03-02T11:08:50.137Z,10.80
2023-03-02T11:09:50.129Z,10.70
2023-03-02T11:10:50.179Z,10.80
2023-03-02T11:11:50.185Z,11.00
2023-03-02T11:12:50.125Z,11.00
2023-03-02T11:13:50.116Z,11.30
2023-03-02T11:14:50.119Z,11.30
2023-03-02T11:15:50.173Z,11.10
2023-03-02T11:16:50.109Z,11.40
2023-03-02T11:17:50.110Z,11.50
2023-03-02T11:18:50.107Z,11.20
2023-03-02T11:19:50.096Z,11.10
2023-03-02T11:20:50.091Z,11.40
2023-03-02T11:21:50.085Z,11.30
2023-03-02T11:22:50.091Z,11.20
2023-03-02T11:23:50.086Z,11.10
2023-03-02T11:24:50.091Z,11.60
2023-03-02T11:25:50.076Z,10.90
2023-03-02T11:26:50.101Z,11.30
2023-03-02T11:27:50.066Z,10.80
2023-03-02T11:28:50.075Z,11.60
2023-03-02T11:29:50.061Z,11.00
2023-03-02T11:30:50.061Z,11.00
2023-03-02T11:31:50.181Z,11.30
2023-03-02T11:32:50.150Z,11.50
2023-03-02T11:33:50.071Z,11.50
2023-03-02T11:34:50.047Z,12.10
2023-03-02T11:35:50.074Z,11.70
2023-03-02T11:36:50.037Z,12.20
2023-03-02T11:37:50.037Z,11.20
2023-03-02T11:38:50.036Z,12.00
2023-03-02T11:39:55.427Z,10.70
2023-03-02T11:40:50.031Z,11.30
2023-03-02T11:41:50.038Z,11.80
2023-03-02T11:42:50.046Z,11.70
2023-03-02T11:43:50.017Z,11.60
2023-03-02T11:44:50.043Z,11.30
2023-03-02T11:45:50.007Z,11.40
2023-03-02T11:46:50.059Z,11.70
2023-03-02T11:47:57.632Z,11.40
2023-03-02T11:48:50.006Z,11.70
2023-03-02T11:49:50.006Z,11.90
2023-03-02T11:50:49.999Z,11.90
2023-03-02T11:51:57.854Z,11.30
2023-03-02T11:52:49.991Z,11.90
2023-03-02T11:53:50.020Z,11.30
2023-03-02T11:54:49.992Z,11.00
2023-03-02T11:55:49.993Z,11.60
2023-03-02T11:56:49.983Z,11.40
2023-03-02T11:57:49.973Z,10.90
2023-03-02T11:58:50.004Z,11.10
2023-03-02T11:59:49.970Z,11.20
2023-03-02T12:00:49.975Z,11.10
2023-03-02T12:01:49.997Z,11.20
2023-03-02T12:02:49.971Z,11.40
2023-03-02T12:03:49.962Z,11.10
2023-03-02T12:04:49.961Z,10.70
2023-03-02T12:05:50.073Z,11.00
2023-03-02T12:06:49.957Z,11.10
2023-03-02T12:07:49.950Z,11.20
2023-03-02T12:08:50.002Z,11.10
2023-03-02T12:09:49.953Z,11.00
2023-03-02T12:10:49.944Z,10.90
2023-03-02T12:11:49.940Z,10.60
2023-03-02T12:12:49.941Z,10.50
2023-03-02T12:13:49.934Z,10.60
2023-03-02T12:14:49.986Z,10.80
2023-03-02T12:15:49.942Z,11.30
2023-03-02T12:16:50.004Z,10.80
2023-03-02T12:17:49.942Z,10.80
2023-03-02T12:18:49.926Z,11.00
2023-03-02T12:19:49.922Z,11.00
2023-03-02T12:20:49.918Z,10.90
2023-03-02T12:21:49.915Z,10.40
2023-03-02T12:22:49.918Z,10.60
2023-03-02T12:23:49.921Z,10.70
2023-03-02T12:24:49.920Z,10.40
2023-03-02T12:25:49.904Z,10.90
2023-03-02T12:26:49.927Z,11.60
2023-03-02T12:27:49.906Z,11.90
2023-03-02T12:28:49.912Z,11.40
2023-03-02T12:29:49.895Z,12.00
2023-03-02T12:30:49.915Z,11.80
2023-03-02T12:31:49.965Z,12.30
2023-03-02T12:32:49.888Z,12.10
2023-03-02T12:33:49.891Z,12.10
2023-03-02T12:34:49.886Z,11.90
2023-03-02T12:35:49.893Z,12.20
2023-03-02T12:36:49.944Z,12.20
2023-03-02T12:37:49.890Z,11.90
2023-03-02T12:38:49.882Z,11.60
2023-03-02T12:39:49.873Z,11.90
2023-03-02T12:40:49.876Z,12.00
2023-03-02T12:41:49.938Z,11.80
2023-03-02T12:42:49.871Z,11.60
2023-03-02T12:43:49.886Z,11.70
2023-03-02T12:44:49.899Z,11.50
2023-03-02T12:45:49.894Z,11.80
2023-03-02T12:46:49.893Z,11.70
2023-03-02T12:47:50.197Z,11.70
2023-03-02T12:48:50.438Z,11.20
2023-03-02T12:49:49.851Z,11.30
2023-03-02T12:50:49.853Z,11.80
2023-03-02T12:51:49.968Z,10.90
2023-03-02T12:52:49.847Z,11.00
2023-03-02T12:53:49.844Z,10.60
2023-03-02T12:54:49.861Z,11.00
2023-03-02T12:55:49.870Z,10.90
2023-03-02T12:56:49.863Z,10.70
2023-03-02T12:57:49.846Z,11.00
2023-03-02T12:58:49.829Z,11.30
2023-03-02T12:59:49.823Z,11.20
2023-03-02T13:00:49.867Z,11.20
2023-03-02T13:01:49.829Z,11.30
2023-03-02T13:02:50.078Z,11.70
2023-03-02T13:03:49.894Z,11.30
2023-03-02T13:04:49.822Z,11.30
2023-03-02T13:05:49.812Z,11.70